createdAt,value
2023-02-21T00:00:33.791Z,71.95
2023-02-21T00:03:19.422Z,71.37
2023-02-21T00:06:04.963Z,71.41
2023-02-21T00:08:50.994Z,71.54
2023-02-21T00:11:37.634Z,71.62
2023-02-21T00:14:23.009Z,70.97
2023-02-21T00:17:07.946Z,71.13
2023-02-21T00:19:53.377Z,71.03
2023-02-21T00:22:38.542Z,71.29
2023-02-21T00:25:24.266Z,70.79
2023-02-21T00:28:11.026Z,71.18
2023-02-21T00:30:56.453Z,71.32
2023-02-21T00:33:42.116Z,71.62
2023-02-21T00:36:27.863Z,71.91
2023-02-21T00:39:13.870Z,72.17
2023-02-21T00:42:01.935Z,72.21
2023-02-21T00:44:48.613Z,72.36
2023-02-21T00:47:33.936Z,72.62
2023-02-21T00:50:19.567Z,72.85
2023-02-21T00:53:04.919Z,72.15
2023-02-21T00:55:50.078Z,71.86
2023-02-21T00:58:35.658Z,71.20
2023-02-21T01:01:22.680Z,71.03
2023-02-21T01:04:07.855Z,71.22
2023-02-21T01:06:53.532Z,71.37
2023-02-21T01:09:38.979Z,71.41
2023-02-21T01:12:24.428Z,71.61
2023-02-21T01:15:09.680Z,71.54
2023-02-21T01:17:56.848Z,72.11
2023-02-21T01:20:42.512Z,72.10
2023-02-21T01:23:27.741Z,72.28
2023-02-21T01:26:13.260Z,72.91
2023-02-21T01:28:58.235Z,72.93
2023-02-21T01:31:43.940Z,73.40
2023-02-21T01:34:30.587Z,73.83
2023-02-21T01:37:15.913Z,74.02
2023-02-21T01:40:01.421Z,74.51
2023-02-21T01:42:47.561Z,74.83
2023-02-21T01:45:59.766Z,74.62
2023-02-21T01:48:46.354Z,74.44
2023-02-21T01:51:38.181Z,74.16
2023-02-21T01:54:26.053Z,74.14
2023-02-21T01:57:13.777Z,74.54
2023-02-21T01:59:59.318Z,74.83
2023-02-21T02:02:49.257Z,75.31
2023-02-21T02:05:36.140Z,74.72
2023-02-21T02:08:22.947Z,75.04
2023-02-21T02:11:27.868Z,75.24
2023-02-21T02:14:15.424Z,75.38
2023-02-21T02:16:50.711Z,75.60
2023-02-21T02:19:47.994Z,75.76
2023-02-21T02:22:40.218Z,76.20
2023-02-21T02:25:30.872Z,76.38
2023-02-21T02:28:17.748Z,76.60
2023-02-21T02:31:19.458Z,76.76
2023-02-21T02:34:26.124Z,77.30
2023-02-21T02:37:01.765Z,77.42
2023-02-21T02:39:41.393Z,78.15
2023-02-21T02:42:15.999Z,78.20
2023-02-21T02:44:50.592Z,78.16
2023-02-21T02:47:23.523Z,78.09
2023-02-21T02:49:53.516Z,78.39
2023-02-21T02:52:21.635Z,78.38
2023-02-21T02:54:59.895Z,78.66
2023-02-21T02:57:30.731Z,79.10
2023-02-21T02:59:58.944Z,79.45
2023-02-21T03:02:47.322Z,79.56
2023-02-21T03:05:37.288Z,79.74
2023-02-21T03:08:15.982Z,79.90
2023-02-21T03:10:49.466Z,80.37
2023-02-21T03:13:23.023Z,80.44
2023-02-21T03:15:57.830Z,80.50
2023-02-21T03:18:30.995Z,81.06
2023-02-21T03:21:02.646Z,81.77
2023-02-21T03:23:34.220Z,82.23
2023-02-21T03:26:06.095Z,82.51
2023-02-21T03:28:35.587Z,82.88
2023-02-21T03:31:06.802Z,83.71
2023-02-21T03:33:35.198Z,84.18
2023-02-21T03:36:07.226Z,84.19
2023-02-21T03:38:35.764Z,84.32
2023-02-21T03:41:03.782Z,84.83
2023-02-21T03:43:31.876Z,85.06
2023-02-21T03:45:59.961Z,85.47
2023-02-21T03:48:32.373Z,85.60
2023-02-21T03:51:01.339Z,85.79
2023-02-21T03:53:30.839Z,86.32
2023-02-21T03:55:58.794Z,86.46
2023-02-21T03:58:26.871Z,86.17
2023-02-21T04:00:55.087Z,85.83
2023-02-21T04:03:23.177Z,85.96
2023-02-21T04:05:51.441Z,85.98
2023-02-21T04:08:19.692Z,85.69
2023-02-21T04:10:52.567Z,85.70
2023-02-21T04:13:21.002Z,85.90
2023-02-21T04:15:49.015Z,85.39
2023-02-21T04:18:17.162Z,85.25
2023-02-21T04:20:46.438Z,85.12
2023-02-21T04:23:17.985Z,84.84
2023-02-21T04:25:46.178Z,85.13
2023-02-21T04:28:15.795Z,84.79
2023-02-21T04:30:43.751Z,85.13
2023-02-21T04:33:11.900Z,84.75
2023-02-21T04:35:39.978Z,84.81
2023-02-21T04:38:08.022Z,84.62
2023-02-21T04:40:36.033Z,84.93
2023-02-21T04:43:04.080Z,84.65
2023-02-21T04:45:33.549Z,84.35
2023-02-21T04:48:01.844Z,84.67
2023-02-21T04:50:29.847Z,84.65
2023-02-21T04:52:57.979Z,84.15
2023-02-21T04:55:26.031Z,83.77
2023-02-21T04:57:54.019Z,83.64
2023-02-21T05:00:22.371Z,84.01
2023-02-21T05:02:51.862Z,84.31
2023-02-21T05:05:19.925Z,84.52
2023-02-21T05:07:48.051Z,84.83
2023-02-21T05:10:16.789Z,84.86
2023-02-21T05:12:45.349Z,85.31
2023-02-21T05:15:14.439Z,85.35
2023-02-21T05:17:43.375Z,85.68
2023-02-21T05:20:13.380Z,86.10
2023-02-21T05:22:42.566Z,86.21
2023-02-21T05:25:16.568Z,86.36
2023-02-21T05:27:45.092Z,86.09
2023-02-21T05:30:14.368Z,86.38
2023-02-21T05:32:43.092Z,87.12
2023-02-21T05:35:13.267Z,87.19
2023-02-21T05:37:41.358Z,87.86
2023-02-21T05:40:13.211Z,87.89
2023-02-21T05:42:41.342Z,88.37
2023-02-21T05:45:10.158Z,88.39
2023-02-21T05:47:40.922Z,89.02
2023-02-21T05:50:09.318Z,88.96
2023-02-21T05:52:38.847Z,89.41
2023-02-21T05:55:07.478Z,89.45
2023-02-21T05:57:41.638Z,89.66
2023-02-21T06:00:16.814Z,88.60
2023-02-21T06:02:44.804Z,88.21
2023-02-21T06:05:13.683Z,88.25
2023-02-21T06:07:43.060Z,88.55
2023-02-21T06:10:11.300Z,88.49
2023-02-21T06:12:39.388Z,88.26
2023-02-21T06:15:08.773Z,88.21
2023-02-21T06:17:37.907Z,87.78
2023-02-21T06:20:07.280Z,87.77
2023-02-21T06:22:35.221Z,87.58
2023-02-21T06:25:04.733Z,87.37
2023-02-21T06:27:32.761Z,86.33
2023-02-21T06:30:01.886Z,86.59
2023-02-21T06:32:30.964Z,86.72
2023-02-21T06:34:59.041Z,86.74
2023-02-21T06:37:27.029Z,86.61
2023-02-21T06:39:55.067Z,86.82
2023-02-21T06:42:24.441Z,87.13
2023-02-21T06:44:52.562Z,86.52
2023-02-21T06:47:20.744Z,85.82
2023-02-21T06:49:48.880Z,85.91
2023-02-21T06:52:17.276Z,85.72
2023-02-21T06:54:46.274Z,85.29
2023-02-21T06:57:14.339Z,84.97
2023-02-21T06:59:43.792Z,84.30
2023-02-21T07:02:18.393Z,82.77
2023-02-21T07:04:46.571Z,82.04
2023-02-21T07:07:14.800Z,80.66
2023-02-21T07:09:42.793Z,79.80
2023-02-21T07:12:10.928Z,79.22
2023-02-21T07:14:38.890Z,79.28
2023-02-21T07:17:08.375Z,79.43
2023-02-21T07:19:36.407Z,79.04
2023-02-21T07:22:04.532Z,78.85
2023-02-21T07:24:32.562Z,78.34
2023-02-21T07:27:01.087Z,77.68
2023-02-21T07:29:29.369Z,77.01
2023-02-21T07:31:58.148Z,76.68
2023-02-21T07:34:27.721Z,75.80
2023-02-21T07:36:55.837Z,75.02
2023-02-21T07:39:23.781Z,73.90
2023-02-21T07:41:52.058Z,73.79
2023-02-21T07:44:20.060Z,74.05
2023-02-21T07:46:48.135Z,73.87
2023-02-21T07:49:16.166Z,72.90
2023-02-21T07:51:45.585Z,73.45
2023-02-21T07:54:13.575Z,71.96
2023-02-21T07:56:44.751Z,72.45
2023-02-21T07:59:12.995Z,71.90
2023-02-21T08:01:41.279Z,72.13
2023-02-21T08:04:09.422Z,72.52
2023-02-21T08:06:37.831Z,72.15
2023-02-21T08:09:07.580Z,72.67
2023-02-21T08:11:36.774Z,71.47
2023-02-21T08:14:05.138Z,71.70
2023-02-21T08:16:34.820Z,70.76
2023-02-21T08:19:05.611Z,70.92
2023-02-21T08:21:33.623Z,69.15
2023-02-21T08:24:01.678Z,69.37
2023-02-21T08:26:31.220Z,68.18
2023-02-21T08:28:59.291Z,69.10
2023-02-21T08:31:27.384Z,68.13
2023-02-21T08:33:55.573Z,68.05
2023-02-21T08:36:25.836Z,68.77
2023-02-21T08:38:53.974Z,67.90
2023-02-21T08:41:21.939Z,66.88
2023-02-21T08:43:51.362Z,66.08
2023-02-21T08:46:19.538Z,65.57
2023-02-21T08:48:47.607Z,64.88
2023-02-21T08:51:16.067Z,65.15
2023-02-21T08:53:44.775Z,64.80
2023-02-21T08:56:12.855Z,64.57
2023-02-21T08:58:40.869Z,64.68
2023-02-21T09:01:10.976Z,64.12
2023-02-21T09:03:39.050Z,64.02
2023-02-21T09:06:07.586Z,64.65
2023-02-21T09:08:37.015Z,63.90
2023-02-21T09:11:05.383Z,63.59
2023-02-21T09:13:34.014Z,62.38
2023-02-21T09:16:03.112Z,63.59
2023-02-21T09:18:34.007Z,63.83
2023-02-21T09:21:02.123Z,63.72
2023-02-21T09:23:34.623Z,62.86
2023-02-21T09:26:02.813Z,63.23
2023-02-21T09:28:31.663Z,63.68
2023-02-21T09:30:59.714Z,62.37
2023-02-21T09:33:27.708Z,62.46
2023-02-21T09:35:57.172Z,61.99
2023-02-21T09:38:25.147Z,61.30
2023-02-21T09:41:00.260Z,60.26
2023-02-21T09:43:34.971Z,59.83
2023-02-21T09:46:08.744Z,58.79
2023-02-21T09:48:37.389Z,58.42
2023-02-21T09:51:10.039Z,59.35
2023-02-21T09:53:40.581Z,59.66
2023-02-21T09:56:14.877Z,58.54
2023-02-21T09:58:45.353Z,58.20
2023-02-21T10:01:23.604Z,58.15
2023-02-21T10:04:00.727Z,58.12
2023-02-21T10:06:40.860Z,58.59
2023-02-21T10:09:21.405Z,57.89
2023-02-21T10:11:59.764Z,58.00
2023-02-21T10:14:38.389Z,57.06
2023-02-21T10:17:16.874Z,56.56
2023-02-21T10:19:48.383Z,56.03
2023-02-21T10:22:22.152Z,55.92
2023-02-21T10:24:51.284Z,56.14
2023-02-21T10:27:21.648Z,56.25
2023-02-21T10:29:55.532Z,54.46
2023-02-21T10:32:25.615Z,54.82
2023-02-21T10:34:55.625Z,55.36
2023-02-21T10:37:39.389Z,53.86
2023-02-21T10:40:17.979Z,53.79
2023-02-21T10:42:51.273Z,54.45
2023-02-21T10:45:20.388Z,53.45
2023-02-21T10:47:58.381Z,53.23
2023-02-21T10:50:51.215Z,52.85
2023-02-21T10:53:30.523Z,52.50
2023-02-21T10:56:22.548Z,52.90
2023-02-21T10:58:53.157Z,53.31
2023-02-21T11:01:25.574Z,53.22
2023-02-21T11:03:56.836Z,52.69
2023-02-21T11:06:29.759Z,53.32
2023-02-21T11:09:00.178Z,51.29
2023-02-21T11:11:37.266Z,51.67
2023-02-21T11:14:24.282Z,52.21
2023-02-21T11:17:14.392Z,51.55
2023-02-21T11:19:52.158Z,51.18
2023-02-21T11:22:23.610Z,51.55
2023-02-21T11:25:06.362Z,50.92
2023-02-21T11:27:38.035Z,51.60
2023-02-21T11:30:23.606Z,51.29
2023-02-21T11:32:57.090Z,51.17
2023-02-21T11:35:28.686Z,51.70
2023-02-21T11:37:58.842Z,50.74
2023-02-21T11:40:35.645Z,51.44
2023-02-21T11:43:20.233Z,49.81
2023-02-21T11:46:07.850Z,50.67
2023-02-21T11:48:40.620Z,51.05
2023-02-21T11:51:20.439Z,51.40
2023-02-21T11:53:48.509Z,51.16
2023-02-21T11:56:34.069Z,50.94
2023-02-21T11:59:09.850Z,51.38
2023-02-21T12:01:46.981Z,50.92
2023-02-21T12:04:31.751Z,51.19
2023-02-21T12:07:08.831Z,50.83
2023-02-21T12:09:45.304Z,50.55
2023-02-21T12:12:32.879Z,50.81
2023-02-21T12:15:11.382Z,50.74
2023-02-21T12:18:03.096Z,52.07
2023-02-21T12:20:47.624Z,51.38
2023-02-21T12:23:23.038Z,51.16
2023-02-21T12:26:09.163Z,49.46
2023-02-21T12:28:54.688Z,50.52
2023-02-21T12:31:34.396Z,50.13
2023-02-21T12:34:15.202Z,49.76
2023-02-21T12:36:55.824Z,48.71
2023-02-21T12:39:39.520Z,49.17
2023-02-21T12:42:29.697Z,48.41
2023-02-21T12:45:08.658Z,47.65
2023-02-21T12:47:47.474Z,47.90
2023-02-21T12:50:19.654Z,47.80
2023-02-21T12:52:54.905Z,48.29
2023-02-21T12:55:26.059Z,48.47
2023-02-21T12:58:02.161Z,48.96
2023-02-21T13:00:40.448Z,48.10
2023-02-21T13:03:30.084Z,48.05
2023-02-21T13:06:03.468Z,47.63
2023-02-21T13:08:37.627Z,43.87
2023-02-21T13:11:13.842Z,42.95
2023-02-21T13:13:42.010Z,43.43
2023-02-21T13:16:14.531Z,40.25
2023-02-21T13:18:48.041Z,40.37
2023-02-21T13:21:26.525Z,40.60
2023-02-21T13:24:39.910Z,41.65
2023-02-21T13:27:46.801Z,40.88
2023-02-21T13:30:22.014Z,39.93
2023-02-21T13:32:56.521Z,38.27
2023-02-21T13:35:31.228Z,37.61
2023-02-21T13:37:59.607Z,35.97
2023-02-21T13:40:36.368Z,33.53
2023-02-21T13:43:08.586Z,32.29
2023-02-21T13:45:36.663Z,30.87
2023-02-21T13:48:32.924Z,30.77
2023-02-21T13:51:02.131Z,30.68
2023-02-21T13:53:34.004Z,30.52
2023-02-21T13:56:20.501Z,30.98
2023-02-21T13:58:49.943Z,30.40
2023-02-21T14:01:44.540Z,30.16
2023-02-21T14:05:03.963Z,31.78
2023-02-21T14:07:59.639Z,31.61
2023-02-21T14:10:45.031Z,30.77
2023-02-21T14:13:28.738Z,28.95
2023-02-21T14:16:00.951Z,29.55
2023-02-21T14:18:33.369Z,28.76
2023-02-21T14:21:03.451Z,28.64
2023-02-21T14:23:42.775Z,26.44
2023-02-21T14:26:39.996Z,26.71
2023-02-21T14:29:30.558Z,28.77
2023-02-21T14:32:16.765Z,31.01
2023-02-21T14:34:55.566Z,32.66
2023-02-21T14:37:28.190Z,33.89
2023-02-21T14:40:01.020Z,34.75
2023-02-21T14:42:43.958Z,36.06
2023-02-21T14:45:25.297Z,37.33
2023-02-21T14:48:06.681Z,36.27
2023-02-21T14:50:45.135Z,35.06
2023-02-21T14:53:58.576Z,32.11
2023-02-21T14:56:50.246Z,31.37
2023-02-21T14:59:50.964Z,29.99
2023-02-21T15:02:27.705Z,30.00
2023-02-21T15:05:01.794Z,28.58
2023-02-21T15:07:35.371Z,27.80
2023-02-21T15:10:16.933Z,26.92
2023-02-21T15:12:49.025Z,26.17
2023-02-21T15:15:23.354Z,26.01
2023-02-21T15:18:10.671Z,25.32
2023-02-21T15:20:40.297Z,25.75
2023-02-21T15:23:16.776Z,25.85
2023-02-21T15:25:46.406Z,26.65
2023-02-21T15:28:22.763Z,28.40
2023-02-21T15:31:02.154Z,31.16
2023-02-21T15:33:34.012Z,33.18
2023-02-21T15:36:04.811Z,35.26
2023-02-21T15:38:35.038Z,36.64
2023-02-21T15:41:07.477Z,37.93
2023-02-21T15:43:43.684Z,39.56
2023-02-21T15:46:17.639Z,40.64
2023-02-21T15:48:45.968Z,41.68
2023-02-21T15:51:14.960Z,42.42
2023-02-21T15:53:43.342Z,42.95
2023-02-21T15:56:21.375Z,44.09
2023-02-21T15:59:13.247Z,44.83
2023-02-21T16:01:42.967Z,45.51
2023-02-21T16:04:20.853Z,46.27
2023-02-21T16:06:52.284Z,46.71
2023-02-21T16:09:27.507Z,46.83
2023-02-21T16:11:59.312Z,47.43
2023-02-21T16:14:39.530Z,47.95
2023-02-21T16:17:21.043Z,48.28
2023-02-21T16:19:53.969Z,48.89
2023-02-21T16:22:34.141Z,49.07
2023-02-21T16:25:09.762Z,49.10
2023-02-21T16:27:37.932Z,49.07
2023-02-21T16:30:07.870Z,49.26
2023-02-21T16:32:39.077Z,49.26
2023-02-21T16:35:07.713Z,49.43
2023-02-21T16:37:35.790Z,49.97
2023-02-21T16:40:07.657Z,49.92
2023-02-21T16:42:35.740Z,50.34
2023-02-21T16:45:03.787Z,50.75
2023-02-21T16:47:31.918Z,51.03
2023-02-21T16:50:01.348Z,51.24
2023-02-21T16:52:29.417Z,51.34
2023-02-21T16:54:57.420Z,51.61
2023-02-21T16:57:25.478Z,51.62
2023-02-21T16:59:53.475Z,51.61
2023-02-21T17:02:24.757Z,52.37
2023-02-21T17:04:52.844Z,52.79
2023-02-21T17:07:24.309Z,52.97
2023-02-21T17:09:53.802Z,53.47
2023-02-21T17:12:22.008Z,54.32
2023-02-21T17:14:50.014Z,55.07
2023-02-21T17:17:18.741Z,55.70
2023-02-21T17:19:46.885Z,56.26
2023-02-21T17:22:15.258Z,56.59
2023-02-21T17:24:44.897Z,57.06
2023-02-21T17:27:12.949Z,57.22
2023-02-21T17:29:40.956Z,57.63
2023-02-21T17:32:09.196Z,58.05
2023-02-21T17:34:38.469Z,58.36
2023-02-21T17:37:06.477Z,58.62
2023-02-21T17:39:34.508Z,59.05
2023-02-21T17:42:04.566Z,59.52
2023-02-21T17:44:33.446Z,59.48
2023-02-21T17:47:03.989Z,59.62
2023-02-21T17:49:31.999Z,59.56
2023-02-21T17:52:00.469Z,59.94
2023-02-21T17:54:28.486Z,60.17
2023-02-21T17:56:56.619Z,60.26
2023-02-21T17:59:25.989Z,60.22
2023-02-21T18:01:55.902Z,59.87
2023-02-21T18:04:24.894Z,59.33
2023-02-21T18:06:52.956Z,59.07
2023-02-21T18:09:21.652Z,59.14
2023-02-21T18:11:50.528Z,58.85
2023-02-21T18:14:18.695Z,58.58
2023-02-21T18:16:48.168Z,58.81
2023-02-21T18:19:16.279Z,59.20
2023-02-21T18:21:46.570Z,58.93
2023-02-21T18:24:15.881Z,58.62
2023-02-21T18:26:44.860Z,58.21
2023-02-21T18:29:12.749Z,58.25
2023-02-21T18:31:40.821Z,58.45
2023-02-21T18:34:10.822Z,58.20
2023-02-21T18:36:41.019Z,57.91
2023-02-21T18:39:09.485Z,57.63
2023-02-21T18:41:37.580Z,57.54
2023-02-21T18:44:06.023Z,57.38
2023-02-21T18:46:34.073Z,57.56
2023-02-21T18:49:02.166Z,57.39
2023-02-21T18:51:36.160Z,56.63
2023-02-21T18:54:04.669Z,57.03
2023-02-21T18:56:32.778Z,57.48
2023-02-21T18:59:00.902Z,57.94
2023-02-21T19:01:28.970Z,58.12
2023-02-21T19:03:57.208Z,58.24
2023-02-21T19:06:28.682Z,58.37
2023-02-21T19:08:59.334Z,58.19
2023-02-21T19:11:27.507Z,57.99
2023-02-21T19:13:55.591Z,58.27
2023-02-21T19:16:25.620Z,58.38
2023-02-21T19:18:55.791Z,58.32
2023-02-21T19:21:24.341Z,58.00
2023-02-21T19:23:52.872Z,58.08
2023-02-21T19:26:22.320Z,58.41
2023-02-21T19:28:50.338Z,58.72
2023-02-21T19:31:20.162Z,59.01
2023-02-21T19:33:48.774Z,59.55
2023-02-21T19:36:16.953Z,59.90
2023-02-21T19:38:48.273Z,60.16
2023-02-21T19:41:17.999Z,60.22
2023-02-21T19:43:48.072Z,59.99
2023-02-21T19:46:24.120Z,60.18
2023-02-21T19:48:53.443Z,60.25
2023-02-21T19:51:26.761Z,61.03
2023-02-21T19:53:56.269Z,61.67
2023-02-21T19:56:24.221Z,62.65
2023-02-21T19:58:54.857Z,63.59
2023-02-21T20:01:25.278Z,64.69
2023-02-21T20:03:53.384Z,65.70
2023-02-21T20:06:24.696Z,66.70
2023-02-21T20:08:52.617Z,67.82
2023-02-21T20:11:22.269Z,69.38
2023-02-21T20:13:50.842Z,70.91
2023-02-21T20:16:22.369Z,72.43
2023-02-21T20:18:54.286Z,73.71
2023-02-21T20:21:24.547Z,74.56
2023-02-21T20:23:52.576Z,74.94
2023-02-21T20:26:23.261Z,75.44
2023-02-21T20:28:52.222Z,76.30
2023-02-21T20:31:23.932Z,76.62
2023-02-21T20:33:52.052Z,76.78
2023-02-21T20:36:28.310Z,77.58
2023-02-21T20:38:56.327Z,77.61
2023-02-21T20:41:24.384Z,77.77
2023-02-21T20:43:52.487Z,78.31
2023-02-21T20:46:25.601Z,78.70
2023-02-21T20:48:53.985Z,79.18
2023-02-21T20:51:29.429Z,79.68
2023-02-21T20:54:00.441Z,79.41
2023-02-21T20:56:33.928Z,79.72
2023-02-21T20:59:02.477Z,80.34
2023-02-21T21:01:31.945Z,80.69
2023-02-21T21:04:00.259Z,81.33
2023-02-21T21:06:28.330Z,82.17
2023-02-21T21:08:58.076Z,82.40
2023-02-21T21:11:28.832Z,83.44
2023-02-21T21:13:56.852Z,83.64
2023-02-21T21:16:24.881Z,83.92
2023-02-21T21:18:54.551Z,84.77
2023-02-21T21:21:24.070Z,84.68
2023-02-21T21:23:52.093Z,85.06
2023-02-21T21:26:20.397Z,85.12
2023-02-21T21:28:48.689Z,85.08
2023-02-21T21:31:17.412Z,85.54
2023-02-21T21:33:46.530Z,85.91
2023-02-21T21:36:15.959Z,86.05
2023-02-21T21:38:44.118Z,86.51
2023-02-21T21:41:14.793Z,86.86
2023-02-21T21:43:44.439Z,86.43
2023-02-21T21:46:14.010Z,86.61
2023-02-21T21:48:44.259Z,86.42
2023-02-21T21:51:14.127Z,85.80
2023-02-21T21:53:43.869Z,86.07
2023-02-21T21:56:11.815Z,86.23
2023-02-21T21:58:39.750Z,86.03
2023-02-21T22:01:07.917Z,86.29
2023-02-21T22:03:36.024Z,86.15
2023-02-21T22:06:04.128Z,86.20
2023-02-21T22:08:32.467Z,86.36
2023-02-21T22:11:01.984Z,86.52
2023-02-21T22:13:33.840Z,86.08
2023-02-21T22:16:02.834Z,86.86
2023-02-21T22:18:31.081Z,87.15
2023-02-21T22:20:59.218Z,87.45
2023-02-21T22:23:27.199Z,88.25
2023-02-21T22:25:57.264Z,89.24
2023-02-21T22:28:26.826Z,89.35
2023-02-21T22:30:55.571Z,89.53
2023-02-21T22:33:23.692Z,89.47
2023-02-21T22:35:51.672Z,89.75
2023-02-21T22:38:19.786Z,90.10
2023-02-21T22:40:48.201Z,89.94
2023-02-21T22:43:20.010Z,89.80
2023-02-21T22:45:50.073Z,90.32
2023-02-21T22:48:20.704Z,90.20
2023-02-21T22:50:49.797Z,90.51
2023-02-21T22:53:19.066Z,90.30
2023-02-21T22:55:51.874Z,90.83
2023-02-21T22:58:21.815Z,90.94
2023-02-21T23:00:51.691Z,91.32
2023-02-21T23:03:19.953Z,91.47
2023-02-21T23:05:50.599Z,91.22
2023-02-21T23:08:21.059Z,91.23
2023-02-21T23:10:49.145Z,91.77
2023-02-21T23:13:20.880Z,91.60
2023-02-21T23:15:49.291Z,90.90
2023-02-21T23:18:21.397Z,90.65
2023-02-21T23:20:52.810Z,90.17
2023-02-21T23:23:21.989Z,90.42
2023-02-21T23:25:50.001Z,90.77
2023-02-21T23:28:18.487Z,90.37
2023-02-21T23:30:48.901Z,90.53
2023-02-21T23:33:22.903Z,90.13
2023-02-21T23:35:52.578Z,90.49
2023-02-21T23:38:22.994Z,89.97
2023-02-21T23:40:56.113Z,90.31
2023-02-21T23:43:29.465Z,90.01
2023-02-21T23:45:58.952Z,90.03
2023-02-21T23:48:29.597Z,89.89
2023-02-21T23:50:58.327Z,89.91
2023-02-21T23:53:28.166Z,90.24
2023-02-21T23:56:00.389Z,89.82
2023-02-21T23:58:31.566Z,89.91
